Time;durP1;ratioP1;P1;durP2;ratioP2;P2;SDS_P1;SDS_P2;PMS_P1;PMS_P2;Temp;Humidity;BMP_temperature;BMP_pressure;BME280_temperature;BME280_humidity;BME280_pressure;Samples;Min_cycle;Max_cycle;Signal;HPM_P1;HPM_P2
2021/12/14 00:01:12;;;;;;;0.30;0.30;;;;;;;5.72;99.92;100850.78;5085973;28;20025;-73
2021/12/14 00:03:40;;;;;;;1.20;1.20;;;;;;;5.71;99.76;100849.91;5085919;28;20039;-72
2021/12/14 00:06:07;;;;;;;0.40;0.40;;;;;;;5.67;99.79;100843.81;5085922;28;20021;-72
2021/12/14 00:08:46;;;;;;;0.40;0.40;;;;;;;5.70;99.68;100850.75;5086035;28;20365;-72
2021/12/14 00:11:29;;;;;;;0.40;0.40;;;;;;;5.77;99.91;100862.91;5085981;28;20437;-73
2021/12/14 00:14:12;;;;;;;2.63;2.45;;;;;;;5.81;99.70;100856.97;5084392;28;20051;-72
2021/12/14 00:16:38;;;;;;;1.52;1.52;;;;;;;5.81;99.74;100856.97;5085786;28;20506;-74
2021/12/14 00:19:04;;;;;;;0.40;0.40;;;;;;;5.77;99.66;100844.00;5085853;28;20050;-73
2021/12/14 00:21:31;;;;;;;0.40;0.40;;;;;;;5.71;99.72;100839.59;5084189;28;20080;-73
2021/12/14 00:24:07;;;;;;;3.25;3.05;;;;;;;5.79;99.85;100856.09;5085983;28;20020;-73
2021/12/14 00:26:49;;;;;;;1.65;1.42;;;;;;;5.81;99.88;100845.81;5084177;28;20027;-73
2021/12/14 00:29:21;;;;;;;;;;;;;;;5.88;99.96;100844.22;5085895;28;20074;-73
2021/12/14 00:31:48;;;;;;;0.50;0.50;;;;;;;5.87;99.84;100852.75;5085427;28;19908;-73
2021/12/14 00:34:22;;;;;;;0.40;0.40;;;;;;;5.87;99.97;100843.34;5085408;28;20447;-73
2021/12/14 00:36:48;;;;;;;0.40;0.40;;;;;;;5.85;99.90;100847.59;5085303;28;20036;-72
2021/12/14 00:39:14;;;;;;;3.22;1.70;;;;;;;5.86;100.00;100841.63;5085383;28;20024;-73
2021/12/14 00:41:40;;;;;;;0.45;0.45;;;;;;;5.85;99.82;100826.97;5085201;28;20035;-73
2021/12/14 00:44:07;;;;;;;0.40;0.40;;;;;;;5.92;99.87;100827.97;5083608;28;20024;-73
2021/12/14 00:46:35;;;;;;;0.30;0.30;;;;;;;5.89;100.00;100838.22;5085356;28;20012;-74
2021/12/14 00:49:00;;;;;;;2.05;1.95;;;;;;;5.93;100.00;100845.16;5084822;28;20055;-73
2021/12/14 00:51:28;;;;;;;0.40;0.40;;;;;;;5.94;100.00;100852.91;5083779;28;20021;-73
2021/12/14 00:53:56;;;;;;;0.60;0.60;;;;;;;5.93;99.85;100851.19;5085321;28;20013;-73
2021/12/14 00:56:21;;;;;;;3.05;0.98;;;;;;;5.85;99.44;100839.00;5084921;28;20017;-72
2021/12/14 00:58:47;;;;;;;0.40;0.40;;;;;;;5.84;99.45;100853.59;5084765;28;20100;-74
2021/12/14 01:01:19;;;;;;;3.78;2.47;;;;;;;5.82;99.12;100852.69;5085208;28;20059;-72
2021/12/14 01:03:49;;;;;;;0.50;0.50;;;;;;;5.78;99.17;100850.91;5085017;28;20038;-72
2021/12/14 01:06:17;;;;;;;2.85;2.75;;;;;;;5.75;99.22;100846.53;5083649;28;20020;-73
2021/12/14 01:08:45;;;;;;;0.88;0.88;;;;;;;5.71;99.11;100849.91;5085052;28;20024;-72
2021/12/14 01:11:22;;;;;;;0.40;0.40;;;;;;;5.67;98.94;100848.97;5085598;28;20044;-72
2021/12/14 01:13:58;;;;;;;0.40;0.40;;;;;;;5.62;99.05;100840.31;5084868;28;20035;-72
2021/12/14 01:16:36;;;;;;;0.85;0.85;;;;;;;5.63;99.20;100842.03;5084549;28;20135;-71
2021/12/14 01:19:21;;;;;;;0.40;0.40;;;;;;;5.55;98.72;100823.88;5084500;28;20240;-73
2021/12/14 01:27:10;;;;;;;0.32;0.32;;;;;;;5.55;99.23;100836.75;5084692;28;20059;-72
2021/12/14 01:29:37;;;;;;;0.40;0.40;;;;;;;5.54;99.53;100818.69;5084009;28;20021;-72
2021/12/14 01:32:05;;;;;;;0.40;0.40;;;;;;;5.54;99.38;100816.97;5084279;28;20024;-72
2021/12/14 01:34:32;;;;;;;0.40;0.40;;;;;;;5.58;99.38;100823.03;5083936;28;20123;-72
2021/12/14 01:37:03;;;;;;;0.40;0.40;;;;;;;5.57;99.57;100821.31;5084286;28;20054;-71
2021/12/14 01:39:48;;;;;;;0.40;0.40;;;;;;;5.64;99.50;100822.31;5084280;28;20054;-72
2021/12/14 01:42:29;;;;;;;0.30;0.30;;;;;;;5.64;99.47;100823.16;5084244;28;20028;-72
2021/12/14 01:45:15;;;;;;;0.40;0.40;;;;;;;5.65;99.52;100813.72;5084122;28;20544;-72
2021/12/14 01:47:45;;;;;;;0.30;0.30;;;;;;;5.65;99.42;100819.75;5083846;28;20465;-72
2021/12/14 01:50:17;;;;;;;6.03;4.63;;;;;;;5.65;99.26;100819.75;5082745;28;20025;-72
2021/12/14 01:52:43;;;;;;;;;;;;;;;5.67;99.50;100810.34;5084525;28;20047;-72
2021/12/14 01:55:30;;;;;;;0.40;0.40;;;;;;;5.65;99.49;100814.63;5083688;28;19912;-72
2021/12/14 01:57:58;;;;;;;0.35;0.35;;;;;;;5.59;99.59;100811.94;5083627;28;20043;-72
2021/12/14 02:00:33;;;;;;;0.40;0.40;;;;;;;5.63;99.33;100811.13;5083027;28;20024;-73
2021/12/14 02:03:00;;;;;;;0.30;0.30;;;;;;;5.61;99.50;100810.22;5083713;28;20432;-72
2021/12/14 02:05:30;;;;;;;0.43;0.43;;;;;;;5.60;99.56;100812.78;5083879;28;20021;-72
2021/12/14 02:07:58;;;;;;;0.40;0.40;;;;;;;5.61;99.24;100811.97;5083536;28;20029;-72
2021/12/14 02:10:29;;;;;;;0.40;0.40;;;;;;;5.61;99.40;100811.97;5083479;28;20378;-72
2021/12/14 02:12:55;;;;;;;0.40;0.40;;;;;;;5.60;99.52;100810.19;5083396;28;20021;-71
2021/12/14 02:15:25;;;;;;;0.40;0.40;;;;;;;5.60;99.52;100810.19;5083405;28;20538;-71
2021/12/14 02:17:54;;;;;;;1.20;1.20;;;;;;;5.63;99.23;100803.41;5083720;28;20362;-71
2021/12/14 02:20:25;;;;;;;0.40;0.40;;;;;;;5.64;99.05;100802.56;5083381;28;20024;-71
2021/12/14 02:22:51;;;;;;;0.50;0.50;;;;;;;5.60;99.42;100805.03;5083502;28;20384;-71
2021/12/14 02:25:18;;;;;;;0.40;0.40;;;;;;;5.60;99.28;100795.63;5083275;28;20020;-71
2021/12/14 02:27:46;;;;;;;0.40;0.40;;;;;;;5.60;99.03;100802.47;5083204;28;20021;-70
2021/12/14 02:30:22;;;;;;;0.30;0.30;;;;;;;5.67;99.28;100800.03;5083222;28;20020;-70
2021/12/14 02:32:48;;;;;;;0.40;0.40;;;;;;;5.67;99.09;100796.59;5083372;28;20559;-70
2021/12/14 02:35:17;;;;;;;0.40;0.40;;;;;;;5.56;99.18;100784.38;5083254;28;20032;-70
2021/12/14 02:37:56;;;;;;;0.40;0.40;;;;;;;5.70;98.95;100797.50;5082985;28;20047;-70
2021/12/14 02:40:31;;;;;;;0.38;0.38;;;;;;;5.69;99.02;100800.06;5081645;28;20050;-69
2021/12/14 02:42:56;;;;;;;0.30;0.30;;;;;;;5.63;99.12;100794.78;5083246;28;20048;-71
2021/12/14 02:45:23;;;;;;;0.95;0.95;;;;;;;5.67;99.13;100794.88;5083169;28;20016;-70
2021/12/14 02:47:50;;;;;;;0.30;0.30;;;;;;;5.66;98.90;100789.69;5083157;28;20027;-70
2021/12/14 02:50:17;;;;;;;0.40;0.40;;;;;;;5.65;99.00;100794.00;5083000;28;20040;-70
2021/12/14 02:52:42;;;;;;;0.40;0.40;;;;;;;5.66;99.00;100784.53;5083393;28;20031;-71
2021/12/14 02:55:15;;;;;;;0.45;0.45;;;;;;;5.66;99.14;100788.00;5082872;28;20028;-71
2021/12/14 02:57:46;;;;;;;0.30;0.30;;;;;;;5.61;99.18;100775.91;5083181;28;20144;-71
2021/12/14 03:00:27;;;;;;;0.37;0.37;;;;;;;5.61;98.74;100768.16;5083026;28;20017;-71
2021/12/14 03:02:53;;;;;;;2.60;2.50;;;;;;;5.61;98.94;100766.44;5083123;28;20465;-69
2021/12/14 03:05:22;;;;;;;0.40;0.40;;;;;;;5.57;98.99;100762.94;5082872;28;20028;-69
2021/12/14 03:07:54;;;;;;;0.40;0.40;;;;;;;5.54;98.92;100769.75;5082708;28;20373;-71
2021/12/14 03:12:56;;;;;;;0.40;0.40;;;;;;;5.61;99.11;100769.00;5086834;28;20024;-71
2021/12/14 03:15:45;;;;;;;0.40;0.40;;;;;;;5.57;99.07;100764.66;5085285;28;20027;-69
2021/12/14 03:18:14;;;;;;;0.40;0.40;;;;;;;5.61;98.63;100766.44;5086640;28;20052;-71
2021/12/14 03:20:46;;;;;;;0.32;0.32;;;;;;;5.60;98.88;100763.84;5086729;28;20040;-70
2021/12/14 03:23:26;;;;;;;0.40;0.40;;;;;;;5.63;98.95;100775.06;5086674;28;20032;-70
2021/12/14 03:25:55;;;;;;;0.40;0.40;;;;;;;5.65;98.79;100767.38;5085284;28;20040;-70
2021/12/14 03:28:24;;;;;;;0.65;0.65;;;;;;;5.65;99.08;100765.66;5086305;28;20017;-69
2021/12/14 03:31:15;;;;;;;0.40;0.40;;;;;;;5.61;98.99;100761.28;5086386;28;20021;-70
2021/12/14 03:33:48;;;;;;;0.40;0.40;;;;;;;5.66;99.01;100763.94;5077914;28;20041;-70
2021/12/14 03:36:23;;;;;;;0.40;0.40;;;;;;;5.65;98.72;100760.50;5086303;28;20445;-70
2021/12/14 03:38:58;;;;;;;0.40;0.40;;;;;;;5.59;99.16;100752.69;5084853;28;20024;-71
2021/12/14 03:41:34;;;;;;;0.30;0.30;;;;;;;5.57;98.97;100752.63;5084995;28;20013;-71
2021/12/14 03:44:05;;;;;;;0.40;0.40;;;;;;;5.57;99.09;100750.06;5086181;28;20016;-70
2021/12/14 03:46:35;;;;;;;0.40;0.40;;;;;;;5.55;99.07;100740.56;5086047;28;20025;-71
2021/12/14 03:49:04;;;;;;;0.40;0.40;;;;;;;5.59;99.24;100737.22;5086423;28;20280;-70
2021/12/14 03:51:30;;;;;;;0.40;0.40;;;;;;;5.56;99.41;100737.16;5086176;28;20084;-70
2021/12/14 03:53:57;;;;;;;0.40;0.40;;;;;;;5.64;99.17;100745.88;5086113;28;20039;-71
2021/12/14 03:56:24;;;;;;;0.40;0.40;;;;;;;5.65;99.38;100739.91;5085611;28;20024;-71
2021/12/14 03:58:52;;;;;;;1.00;1.00;;;;;;;5.64;99.39;100735.56;5085714;28;20039;-71
2021/12/14 04:01:23;;;;;;;0.82;0.82;;;;;;;5.62;99.29;100736.41;5086227;28;20020;-71
2021/12/14 04:03:52;;;;;;;0.93;0.93;;;;;;;5.65;99.35;100749.34;5086047;28;20031;-71
2021/12/14 04:06:18;;;;;;;0.40;0.40;;;;;;;5.62;99.34;100747.59;5084596;28;20028;-72
2021/12/14 04:08:45;;;;;;;0.40;0.40;;;;;;;5.63;99.21;100743.28;5085512;28;20055;-71
2021/12/14 04:11:14;;;;;;;0.40;0.40;;;;;;;5.65;99.34;100741.59;5085867;28;20028;-72
2021/12/14 04:13:43;;;;;;;0.40;0.40;;;;;;;5.61;99.33;100750.13;5085686;28;20021;-71
2021/12/14 04:16:14;;;;;;;0.35;0.35;;;;;;;5.60;99.16;100754.41;5085711;28;20028;-71
2021/12/14 04:18:40;;;;;;;0.40;0.40;;;;;;;5.63;99.38;100753.59;5085525;28;20020;-71
2021/12/14 04:21:06;;;;;;;0.40;0.40;;;;;;;5.61;98.96;100752.72;5085665;28;20430;-71
2021/12/14 04:23:37;;;;;;;0.68;0.68;;;;;;;5.62;99.00;100759.59;5084785;28;20020;-71
2021/12/14 04:26:04;;;;;;;0.40;0.40;;;;;;;5.56;99.15;100757.75;5085575;28;20036;-71
2021/12/14 04:28:35;;;;;;;0.40;0.40;;;;;;;5.52;99.17;100755.97;5085169;28;20077;-71
2021/12/14 04:31:01;;;;;;;0.40;0.40;;;;;;;5.52;99.09;100745.66;5085527;28;20415;-72
2021/12/14 04:33:30;;;;;;;0.40;0.40;;;;;;;5.56;98.89;100752.59;5085582;28;20035;-71
2021/12/14 04:35:57;;;;;;;0.30;0.30;;;;;;;5.52;99.00;100756.84;5085120;28;20084;-70
2021/12/14 04:38:29;;;;;;;0.40;0.40;;;;;;;5.53;98.75;100762.84;5085137;28;20032;-70
2021/12/14 04:52:01;;;;;;;0.40;0.40;;;;;;;5.46;98.93;100749.00;5085149;28;20069;-70
2021/12/14 04:54:44;;;;;;;0.40;0.40;;;;;;;5.44;99.09;100754.13;5084870;28;20044;-70
2021/12/14 04:57:24;;;;;;;1.20;1.20;;;;;;;5.43;98.77;100747.22;5084809;28;20028;-70
2021/12/14 04:59:51;;;;;;;0.40;0.40;;;;;;;5.42;99.12;100748.09;5083459;28;20020;-70
2021/12/14 05:02:22;;;;;;;0.40;0.40;;;;;;;5.40;98.89;100747.19;5083377;28;20020;-70
2021/12/14 05:04:47;;;;;;;0.40;0.40;;;;;;;5.34;98.82;100739.34;5084607;28;20021;-70
2021/12/14 05:09:58;;;;;;;0.30;0.30;;;;;;;5.46;98.71;100747.28;5084652;28;20045;-70
2021/12/14 05:12:28;;;;;;;0.40;0.40;;;;;;;5.46;98.99;100744.72;5084571;28;20020;-70
2021/12/14 05:14:55;;;;;;;0.38;0.38;;;;;;;5.42;99.04;100745.50;5084628;28;20024;-70
2021/12/14 05:17:26;;;;;;;0.40;0.40;;;;;;;5.44;98.89;100745.53;5084461;28;20017;-70
2021/12/14 05:19:52;;;;;;;0.40;0.40;;;;;;;5.39;98.91;100744.56;5083331;28;20036;-69
2021/12/14 05:22:24;;;;;;;1.15;1.00;;;;;;;5.37;98.97;100746.28;5084371;28;20024;-67
2021/12/14 05:24:55;;;;;;;0.40;0.40;;;;;;;5.28;98.75;100758.13;5084408;28;20095;-68
2021/12/14 05:27:26;;;;;;;0.30;0.30;;;;;;;5.28;98.52;100754.69;5084366;28;20050;-69
2021/12/14 05:29:53;;;;;;;0.40;0.40;;;;;;;5.21;98.60;100752.00;5084079;28;20021;-68
2021/12/14 05:32:19;;;;;;;0.40;0.40;;;;;;;5.19;98.58;100751.06;5084135;28;20066;-69
2021/12/14 05:34:49;;;;;;;0.40;0.40;;;;;;;5.21;98.71;100759.72;5084137;28;20028;-68
2021/12/14 05:37:21;;;;;;;0.30;0.30;;;;;;;5.22;98.94;100763.16;5084340;28;20017;-68
2021/12/14 05:45:04;;;;;;;0.60;0.60;;;;;;;5.30;99.17;100773.59;5084187;28;20451;-69
2021/12/14 05:47:30;;;;;;;0.40;0.40;;;;;;;5.24;99.40;100765.75;5082507;28;20555;-69
2021/12/14 05:49:55;;;;;;;0.40;0.40;;;;;;;5.31;99.10;100775.31;5084004;28;20029;-71
2021/12/14 05:52:27;;;;;;;0.30;0.30;;;;;;;5.27;99.21;100771.81;5083824;28;20388;-71
2021/12/14 05:54:56;;;;;;;0.50;0.50;;;;;;;5.31;99.14;100773.63;5083797;28;20020;-71
2021/12/14 05:57:25;;;;;;;0.50;0.50;;;;;;;5.27;99.46;100763.25;5083748;28;20024;-71
2021/12/14 05:59:51;;;;;;;0.40;0.40;;;;;;;5.36;99.13;100780.56;5082188;28;20025;-72
2021/12/14 06:02:19;;;;;;;0.40;0.40;;;;;;;5.37;99.33;100777.16;5083726;28;20427;-70
2021/12/14 06:04:47;;;;;;;0.32;0.32;;;;;;;5.32;99.26;100777.94;5083530;28;20012;-71
2021/12/14 06:07:15;;;;;;;0.40;0.40;;;;;;;5.34;99.05;100780.53;5083913;28;20020;-70
2021/12/14 06:09:45;;;;;;;0.40;0.40;;;;;;;5.35;99.15;100792.59;5083621;28;20045;-70
2021/12/14 06:12:13;;;;;;;0.40;0.40;;;;;;;5.35;99.25;100789.13;5083880;28;20116;-70
2021/12/14 06:14:50;;;;;;;0.38;0.38;;;;;;;5.33;99.13;100795.13;5083257;28;20083;-70
2021/12/14 06:17:16;;;;;;;0.40;0.40;;;;;;;5.33;98.92;100794.25;5083623;28;20020;-69
2021/12/14 06:19:48;;;;;;;0.40;0.40;;;;;;;5.31;98.96;100793.34;5082217;28;20071;-69
2021/12/14 06:22:17;;;;;;;0.40;0.40;;;;;;;5.26;98.90;100794.97;5082347;28;20024;-70
2021/12/14 06:24:52;;;;;;;0.40;0.40;;;;;;;5.23;98.86;100788.06;5082275;28;20056;-71
2021/12/14 06:27:20;;;;;;;0.60;0.60;;;;;;;5.19;98.76;100788.84;5083323;28;20432;-70
2021/12/14 06:29:50;;;;;;;0.40;0.40;;;;;;;5.10;98.59;100776.63;5083130;28;20021;-70
2021/12/14 06:32:17;;;;;;;0.60;0.60;;;;;;;5.08;98.29;100779.19;5083386;28;20088;-70
2021/12/14 06:34:49;;;;;;;0.40;0.40;;;;;;;5.01;98.49;100774.75;5083354;28;20024;-71
2021/12/14 06:40:17;;;;;;;0.30;0.30;;;;;;;4.84;98.42;100772.69;5083590;28;20028;-70
2021/12/14 06:42:50;;;;;;;0.40;0.40;;;;;;;4.77;98.16;100770.84;5083301;28;20025;-71
2021/12/14 06:45:38;;;;;;;0.38;0.38;;;;;;;4.70;98.10;100769.84;5083267;28;20032;-71
2021/12/14 06:48:20;;;;;;;0.40;0.40;;;;;;;4.63;98.19;100773.13;5087516;28;20044;-71
2021/12/14 06:50:59;;;;;;;0.40;0.40;;;;;;;4.59;98.13;100779.88;5086109;28;20028;-71
2021/12/14 06:53:36;;;;;;;0.38;0.38;;;;;;;4.57;98.38;100778.09;5087571;28;20086;-71
2021/12/14 06:56:05;;;;;;;0.50;0.50;;;;;;;4.55;98.15;100784.94;5087266;28;20028;-71
2021/12/14 06:58:47;;;;;;;0.40;0.40;;;;;;;4.49;98.60;100784.78;5087040;28;20025;-70
2021/12/14 07:01:28;;;;;;;0.45;0.45;;;;;;;4.49;98.59;100782.22;5087328;28;20520;-71
2021/12/14 07:04:00;;;;;;;0.50;0.50;;;;;;;4.46;98.40;100786.44;5087338;28;20033;-72
2021/12/14 07:06:27;;;;;;;0.40;0.40;;;;;;;4.44;98.47;100788.09;5087439;28;20020;-70
2021/12/14 07:08:56;;;;;;;0.40;0.40;;;;;;;4.43;98.50;100785.50;5087081;28;20024;-71
2021/12/14 07:11:24;;;;;;;0.40;0.40;;;;;;;4.43;98.47;100791.53;5087132;28;20032;-71
2021/12/14 07:13:52;;;;;;;0.40;0.40;;;;;;;4.38;98.67;100787.13;5086853;28;20262;-71
2021/12/14 07:16:29;;;;;;;0.40;0.40;;;;;;;4.37;98.37;100788.81;5086913;28;20032;-70
2021/12/14 07:18:57;;;;;;;0.70;0.70;;;;;;;4.26;98.51;100779.97;5086819;28;20028;-70
2021/12/14 07:21:41;;;;;;;0.40;0.40;;;;;;;4.26;98.37;100791.13;5086902;28;20027;-70
2021/12/14 07:24:29;;;;;;;0.35;0.35;;;;;;;4.27;98.62;100786.84;5086640;28;20024;-69
2021/12/14 07:27:13;;;;;;;0.30;0.30;;;;;;;4.28;98.70;100786.03;5085286;28;20020;-70
2021/12/14 07:29:39;;;;;;;0.40;0.40;;;;;;;4.26;98.69;100777.41;5086291;28;20028;-71
2021/12/14 07:32:05;;;;;;;0.40;0.40;;;;;;;4.22;98.50;100774.75;5086704;28;20116;-72
2021/12/14 07:34:30;;;;;;;0.30;0.30;;;;;;;4.16;98.64;100759.19;5086870;28;20028;-71
2021/12/14 07:36:56;;;;;;;0.30;0.30;;;;;;;4.18;98.52;100779.78;5086707;28;20392;-70
2021/12/14 07:39:22;;;;;;;0.40;0.40;;;;;;;4.16;98.65;100781.44;5086290;28;20024;-71
2021/12/14 07:41:50;;;;;;;0.40;0.40;;;;;;;4.13;98.59;100779.69;5086364;28;20028;-71
2021/12/14 07:44:19;;;;;;;0.40;0.40;;;;;;;4.11;98.73;100783.91;5086359;28;20121;-71
2021/12/14 07:46:44;;;;;;;0.57;0.57;;;;;;;4.13;98.53;100800.25;5086352;28;20021;-70
2021/12/14 07:49:20;;;;;;;0.32;0.32;;;;;;;4.10;98.83;100792.47;5086200;28;20511;-72
2021/12/14 07:51:48;;;;;;;0.40;0.40;;;;;;;4.10;98.68;100797.59;5086210;28;20029;-70
2021/12/14 07:54:25;;;;;;;0.40;0.40;;;;;;;4.11;98.74;100806.16;5086133;28;20025;-70
2021/12/14 07:56:58;;;;;;;0.38;0.38;;;;;;;4.08;98.67;100795.00;5084219;28;20077;-70
2021/12/14 07:59:27;;;;;;;0.40;0.40;;;;;;;4.06;98.81;100806.03;5084165;28;20028;-70
2021/12/14 08:02:18;;;;;;;0.40;0.40;;;;;;;4.04;98.94;100813.72;5086493;28;20021;-71
2021/12/14 08:04:52;;;;;;;0.40;0.40;;;;;;;4.02;98.81;100819.66;5077432;28;20038;-70
2021/12/14 08:07:28;;;;;;;2.05;1.95;;;;;;;3.99;98.87;100819.59;5085918;28;20039;-71
2021/12/14 08:10:06;;;;;;;0.40;0.40;;;;;;;4.00;98.76;100826.44;5085818;28;20102;-70
2021/12/14 08:12:40;;;;;;;0.40;0.40;;;;;;;4.05;98.92;100830.00;5086033;28;20025;-70
2021/12/14 08:15:07;;;;;;;0.40;0.40;;;;;;;4.09;98.90;100842.09;5085695;28;20036;-71
2021/12/14 08:17:36;;;;;;;0.40;0.40;;;;;;;4.11;98.95;100850.72;5085712;28;20431;-70
2021/12/14 08:20:09;;;;;;;0.40;0.40;;;;;;;4.11;98.84;100855.88;5085992;28;20028;-71
2021/12/14 08:22:38;;;;;;;0.30;0.30;;;;;;;4.16;99.18;100863.69;5086016;28;20026;-69
2021/12/14 08:25:07;;;;;;;0.40;0.40;;;;;;;4.18;99.23;100868.06;5086024;28;20099;-69
2021/12/14 08:27:33;;;;;;;0.40;0.40;;;;;;;4.18;99.13;100855.22;5085575;28;20024;-70
2021/12/14 08:30:02;;;;;;;0.95;0.95;;;;;;;4.19;99.20;100843.19;5085299;28;20046;-69
2021/12/14 08:32:34;;;;;;;0.30;0.30;;;;;;;4.29;99.22;100859.72;5085867;28;20027;-69
2021/12/14 08:35:03;;;;;;;0.40;0.40;;;;;;;4.35;99.37;100865.03;5085589;28;20024;-69
2021/12/14 08:37:41;;;;;;;0.40;0.40;;;;;;;4.40;99.54;100865.13;5085550;28;20021;-69
2021/12/14 08:40:18;;;;;;;0.40;0.40;;;;;;;4.43;99.65;100853.22;5085799;28;20024;-69
2021/12/14 08:43:02;;;;;;;0.40;0.40;;;;;;;4.54;99.31;100853.47;5085544;28;20130;-69
2021/12/14 08:45:33;;;;;;;0.32;0.32;;;;;;;4.63;99.51;100855.41;5085241;28;20012;-69
2021/12/14 08:48:02;;;;;;;0.50;0.50;;;;;;;4.68;99.07;100858.09;5084807;28;20012;-69
2021/12/14 08:50:29;;;;;;;0.32;0.32;;;;;;;4.66;99.09;100857.19;5085499;28;20033;-68
2021/12/14 08:52:55;;;;;;;0.40;0.40;;;;;;;4.75;99.02;100859.09;5084041;28;20025;-68
2021/12/14 08:55:23;;;;;;;0.40;0.40;;;;;;;4.77;99.16;100870.28;5085341;28;20552;-69
2021/12/14 08:57:49;;;;;;;0.40;0.40;;;;;;;4.79;98.95;100877.19;5085711;28;20458;-69
2021/12/14 09:00:24;;;;;;;0.93;0.93;;;;;;;4.79;99.06;100878.91;5085094;28;20089;-68
2021/12/14 09:02:53;;;;;;;4.53;1.83;;;;;;;4.80;98.81;100878.94;5085166;28;20104;-68
2021/12/14 09:05:29;;;;;;;0.30;0.30;;;;;;;4.79;98.64;100877.19;5085069;28;20021;-68
2021/12/14 09:07:55;;;;;;;0.35;0.35;;;;;;;4.79;98.97;100868.63;5085243;28;20059;-69
2021/12/14 09:10:25;;;;;;;0.40;0.40;;;;;;;4.77;98.62;100868.59;5084320;28;20492;-68
2021/12/14 09:12:55;;;;;;;0.40;0.40;;;;;;;4.81;98.35;100874.66;5084908;28;20029;-68
2021/12/14 09:15:31;;;;;;;0.40;0.40;;;;;;;4.80;98.74;100873.81;5084489;28;20075;-68
2021/12/14 09:17:57;;;;;;;0.50;0.50;;;;;;;4.83;99.01;100867.84;5083521;28;20038;-69
2021/12/14 09:20:31;;;;;;;0.45;0.45;;;;;;;4.83;98.75;100865.28;5083589;28;20107;-70
2021/12/14 09:23:01;;;;;;;0.30;0.30;;;;;;;4.86;98.97;100862.78;5084655;28;20054;-69
2021/12/14 09:25:29;;;;;;;0.63;0.63;;;;;;;4.90;99.01;100851.72;5084699;28;20020;-68
2021/12/14 09:27:56;;;;;;;0.40;0.40;;;;;;;5.04;98.62;100846.00;5083333;28;20432;-68
2021/12/14 09:30:28;;;;;;;0.40;0.40;;;;;;;5.18;99.02;100854.88;5084483;28;20024;-68
2021/12/14 09:32:55;;;;;;;0.40;0.40;;;;;;;5.21;98.64;100849.81;5084958;28;20020;-68
2021/12/14 09:35:24;;;;;;;0.40;0.40;;;;;;;5.27;98.39;100854.19;5084488;28;20032;-69
2021/12/14 09:37:52;;;;;;;0.40;0.40;;;;;;;5.33;98.35;100861.19;5084312;28;20078;-69
2021/12/14 09:40:36;;;;;;;0.40;0.40;;;;;;;5.41;98.52;100867.38;5084365;28;20028;-70
2021/12/14 09:43:01;;;;;;;0.40;0.40;;;;;;;5.43;98.50;100865.69;5084365;28;20028;-69
2021/12/14 09:45:35;;;;;;;0.40;0.40;;;;;;;5.59;98.60;100878.91;5083975;28;20013;-69
2021/12/14 09:48:02;;;;;;;0.32;0.32;;;;;;;5.74;97.97;100875.72;5084273;28;20080;-69
2021/12/14 09:50:34;;;;;;;0.40;0.40;;;;;;;5.96;97.86;100876.13;5084155;28;20020;-69
2021/12/14 09:53:03;;;;;;;0.50;0.50;;;;;;;6.46;98.19;100882.16;5084343;28;20020;-70
2021/12/14 09:55:32;;;;;;;0.40;0.40;;;;;;;7.00;96.99;100879.53;5084060;28;20035;-69
2021/12/14 09:58:03;;;;;;;1.05;1.05;;;;;;;7.62;95.24;100874.28;5082648;28;20028;-70
2021/12/14 10:00:51;;;;;;;0.47;0.47;;;;;;;7.95;93.27;100877.22;5083851;28;20028;-71
2021/12/14 10:03:18;;;;;;;0.30;0.30;;;;;;;8.30;91.40;100880.97;5083926;28;20076;-71
2021/12/14 10:05:52;;;;;;;0.30;0.30;;;;;;;8.58;90.51;100881.22;5083928;28;20034;-72
2021/12/14 10:08:21;;;;;;;0.40;0.40;;;;;;;8.87;88.92;100865.03;5084018;28;20063;-71
2021/12/14 10:11:00;;;;;;;0.30;0.30;;;;;;;9.13;88.03;100889.34;5083779;28;20484;-71
2021/12/14 10:13:26;;;;;;;0.30;0.30;;;;;;;9.28;87.98;100883.41;5083980;28;20028;-72
2021/12/14 10:15:54;;;;;;;0.30;0.30;;;;;;;9.12;87.14;100872.09;5083499;28;20012;-72
2021/12/14 10:18:34;;;;;;;1.10;1.10;;;;;;;8.97;86.64;100889.28;5083775;28;20035;-72
2021/12/14 10:21:05;;;;;;;1.77;1.67;;;;;;;8.65;86.81;100885.63;5083139;28;20016;-73
2021/12/14 10:23:34;;;;;;;0.40;0.40;;;;;;;8.46;87.33;100889.75;5083479;28;20059;-73
2021/12/14 10:26:00;;;;;;;0.30;0.30;;;;;;;8.16;87.97;100883.44;5083527;28;20025;-73
2021/12/14 10:28:27;;;;;;;1.00;1.00;;;;;;;8.04;87.75;100894.53;5083498;28;20054;-73
2021/12/14 10:30:59;;;;;;;0.40;0.40;;;;;;;7.94;89.51;100891.84;5083478;28;20067;-74
2021/12/14 10:33:27;;;;;;;;;;;;;;;7.78;88.06;100888.22;5084019;28;20123;-74
2021/12/14 10:36:01;;;;;;;0.60;0.60;;;;;;;7.44;89.12;100860.28;5083702;28;19912;-74
2021/12/14 10:38:37;;;;;;;0.40;0.40;;;;;;;7.54;90.27;100886.25;5083474;28;20025;-73
2021/12/14 10:43:58;;;;;;;0.40;0.40;;;;;;;7.55;91.19;100894.03;5083321;28;20035;-71
2021/12/14 10:46:25;;;;;;;0.32;0.32;;;;;;;7.46;91.56;100900.78;5083694;28;20017;-71
2021/12/14 10:48:51;;;;;;;0.30;0.30;;;;;;;7.29;91.12;100897.16;5083417;28;20054;-71
2021/12/14 10:51:21;;;;;;;0.40;0.40;;;;;;;7.01;91.11;100899.31;5083457;28;20020;-72
2021/12/14 10:53:52;;;;;;;0.40;0.40;;;;;;;6.92;91.45;100899.19;5083663;28;20086;-71
2021/12/14 10:56:22;;;;;;;0.40;0.40;;;;;;;6.81;91.36;100892.19;5083679;28;20081;-73
2021/12/14 10:58:51;;;;;;;0.40;0.40;;;;;;;6.76;92.18;100895.50;5083089;28;20554;-72
2021/12/14 11:01:25;;;;;;;0.40;0.40;;;;;;;6.71;92.28;100900.59;5083350;28;20031;-75
2021/12/14 11:03:56;;;;;;;0.40;0.40;;;;;;;6.65;92.33;100908.25;5083363;28;20016;-74
2021/12/14 11:06:28;;;;;;;0.40;0.40;;;;;;;6.51;92.74;100905.47;5083383;28;20024;-74
2021/12/14 11:09:39;;;;;;;0.40;0.40;;;;;;;6.40;92.53;100888.09;5082903;28;20511;-73
2021/12/14 11:11:53;;;;;;;0.40;0.40;;;;;;;6.29;92.35;100908.53;5083192;28;20469;-73
2021/12/14 11:14:25;;;;;;;0.30;0.30;;;;;;;6.18;92.44;100912.66;5081665;28;20036;-73
2021/12/14 11:19:51;;;;;;;0.40;0.40;;;;;;;6.38;93.26;100901.81;5083157;28;20060;-72
2021/12/14 11:22:22;;;;;;;0.40;0.40;;;;;;;6.41;93.74;100905.31;5083142;28;20111;-71
2021/12/14 11:24:53;;;;;;;0.32;0.32;;;;;;;6.47;92.85;100911.41;5083143;28;20024;-71
2021/12/14 11:27:23;;;;;;;0.40;0.40;;;;;;;6.38;92.92;100904.38;5083161;28;20046;-72
2021/12/14 11:29:52;;;;;;;0.40;0.40;;;;;;;6.32;93.16;100905.16;5081460;28;20035;-72
2021/12/14 11:32:21;;;;;;;0.30;0.30;;;;;;;6.25;93.37;100905.88;5084497;28;20081;-72
2021/12/14 11:34:47;;;;;;;0.40;0.40;;;;;;;6.20;93.56;100916.09;5086698;28;20024;-70
2021/12/14 11:37:19;;;;;;;0.40;0.40;;;;;;;6.12;93.60;100902.25;5086616;28;20135;-69
2021/12/14 11:39:52;;;;;;;0.30;0.30;;;;;;;5.99;93.16;100898.53;5085370;28;20028;-69
2021/12/14 11:42:17;;;;;;;0.30;0.30;;;;;;;5.93;93.46;100907.88;5086498;28;20116;-70
2021/12/14 11:44:54;;;;;;;0.60;0.60;;;;;;;5.86;93.96;100898.31;5085130;28;20028;-70
2021/12/14 11:47:41;;;;;;;0.40;0.40;;;;;;;5.83;93.82;100905.97;5086433;28;20082;-70
2021/12/14 11:50:12;;;;;;;0.50;0.50;;;;;;;5.77;93.95;100891.25;5086467;28;20247;-70
2021/12/14 11:52:57;;;;;;;0.50;0.50;;;;;;;5.82;94.32;100892.22;5085164;28;20063;-70
2021/12/14 11:55:48;;;;;;;0.40;0.40;;;;;;;5.82;94.53;100893.91;5086469;28;20469;-70
2021/12/14 11:58:45;;;;;;;0.40;0.40;;;;;;;5.79;94.70;100891.28;5086470;28;20024;-70
2021/12/14 12:01:28;;;;;;;0.30;0.30;;;;;;;5.74;94.71;100893.75;5086279;28;20037;-70
2021/12/14 12:04:02;;;;;;;0.30;0.30;;;;;;;5.66;94.37;100888.47;5085135;28;20047;-70
2021/12/14 12:11:55;;;;;;;0.32;0.32;;;;;;;5.44;94.57;100898.34;5086066;28;20105;-70
2021/12/14 12:14:23;;;;;;;0.40;0.40;;;;;;;5.48;94.83;100891.53;5085846;28;20028;-70
2021/12/14 12:16:51;;;;;;;2.10;2.00;;;;;;;5.43;95.20;100901.75;5085721;28;20029;-69
2021/12/14 12:19:21;;;;;;;0.30;0.30;;;;;;;5.42;95.37;100901.72;5085735;28;20024;-70
2021/12/14 12:21:48;;;;;;;0.40;0.40;;;;;;;5.24;95.33;100876.47;5086000;28;20347;-70
2021/12/14 12:24:49;;;;;;;0.40;0.40;;;;;;;5.46;95.34;100901.81;5084487;28;20036;-70
2021/12/14 12:27:32;;;;;;;0.40;0.40;;;;;;;5.44;95.46;100900.91;5052696;28;20119;-70
2021/12/14 12:30:15;;;;;;;0.40;0.40;;;;;;;5.38;95.65;100897.34;5085614;28;20020;-71
2021/12/14 12:32:41;;;;;;;0.40;0.40;;;;;;;5.37;95.54;100899.03;5085812;28;20049;-70
2021/12/14 12:35:34;;;;;;;1.17;1.13;;;;;;;5.41;95.16;100905.13;5085318;28;20048;-71